Bodrum, Turkey

11:15 AM +03 on December 06, 2016 (GMT +0300)
Birger's automatic weatherstation | | Change Station

Elev 364 ft 37.05 °N, 27.41 °E | Updated 21 seconds ago

Clear
Clear
64.9 °F
Feels Like 64.9 °F
N
2.2
Wind Variable Wind from NW
Gusts 2.2 mph

Today
High -- | Low -- °F
--% Chance of Precip.
Yesterday
High -- | Low -- °F
Precip. -- in
Pressure 30.33 in
Visibility -9999.0 miles
Clouds
Dew Point 46 °F
Humidity 50%
Rainfall 0.00 in
Snow Depth Not available.
8:09 AM 5:53 PM
Waxing Crescent, 39% visible
METAR LTFE 060750Z 10004KT 060V130 CAVOK 10/04 Q1027 NOSIG RMK RWY10 13004KT 080V150
Pressure 30.33 in
Visibility -9999.0 miles
Clouds
Dew Point 46 °F
Humidity 50%
Rainfall 0.00 in
Snow Depth Not available.
8:09 AM 5:53 PM
Waxing Crescent, 39% visible
METAR LTFE 060750Z 10004KT 060V130 CAVOK 10/04 Q1027 NOSIG RMK RWY10 13004KT 080V150

10-Day Weather Forecast

×

Almanac

Astronomy

Dec. 06, 2016 Rise Set
Actual Time
Civil Twilight
Nautical Twilight
Astronomical Twilight
Moon
Length of Visible Light
Length of Day
Tomorrow will be .
, % of the Moon is Illuminated

Today's Extremes

Country Highs Country Lows

Community

WunderPhotos

Upload Photos

1,955,935 photos uploaded!

WunderBlog® & News

Nearby

Air Quality

  Air Quality AQ Index Pollutant
Not available.

Snow Depth

Station Depth Elevation

Earthquake Activity

City Distance Mag. Time & Date
Minimum magnitude displayed is 2.5.

Coastal Water Temperatures

Place Temperature

Stations

Nearby Weather Stations

Station Location Temp. Windchill Dew Point Humidity Wind Precip. Elev Updated Type